createdAt,value
2024-01-31T00:00:30.068Z,84.70
2024-01-31T00:02:57.297Z,84.80
2024-01-31T00:05:24.771Z,84.80
2024-01-31T00:07:52.233Z,85.00
2024-01-31T00:10:19.796Z,85.40
2024-01-31T00:12:47.119Z,86.40
2024-01-31T00:15:14.945Z,86.50
2024-01-31T00:17:42.297Z,86.10
2024-01-31T00:20:09.836Z,85.80
2024-01-31T00:22:37.230Z,86.30
2024-01-31T00:25:05.035Z,86.40
2024-01-31T00:27:33.191Z,86.20
2024-01-31T00:30:00.519Z,85.40
2024-01-31T00:32:27.880Z,85.50
2024-01-31T00:34:55.222Z,85.90
2024-01-31T00:37:22.584Z,85.90
2024-01-31T00:39:50.039Z,85.50
2024-01-31T00:42:17.370Z,85.50
2024-01-31T00:44:44.758Z,85.10
2024-01-31T00:47:12.245Z,85.00
2024-01-31T00:49:39.781Z,85.10
2024-01-31T00:52:07.407Z,84.40
2024-01-31T00:54:34.715Z,84.10
2024-01-31T00:57:02.653Z,84.10
2024-01-31T00:59:30.283Z,84.00
2024-01-31T01:01:57.685Z,84.20
2024-01-31T01:04:25.066Z,84.40
2024-01-31T01:06:52.493Z,84.90
2024-01-31T01:09:19.767Z,84.80
2024-01-31T01:11:47.092Z,84.90
2024-01-31T01:14:16.073Z,85.60
2024-01-31T01:16:44.709Z,85.20
2024-01-31T01:19:12.230Z,84.80
2024-01-31T01:21:39.621Z,85.70
2024-01-31T01:24:07.135Z,85.00
2024-01-31T01:26:34.484Z,85.90
2024-01-31T01:29:01.713Z,86.10
2024-01-31T01:31:28.983Z,85.50
2024-01-31T01:33:56.350Z,85.40
2024-01-31T01:36:23.767Z,87.40
2024-01-31T01:38:51.014Z,87.90
2024-01-31T01:41:18.700Z,87.70
2024-01-31T01:43:46.026Z,87.60
2024-01-31T01:46:21.462Z,88.30
2024-01-31T01:48:52.375Z,88.10
2024-01-31T01:51:24.788Z,87.90
2024-01-31T01:53:52.933Z,89.00
2024-01-31T01:56:21.405Z,88.70
2024-01-31T01:58:50.350Z,88.40
2024-01-31T02:01:18.771Z,88.20
2024-01-31T02:03:47.377Z,87.10
2024-01-31T02:06:15.385Z,86.50
2024-01-31T02:08:43.480Z,86.70
2024-01-31T02:11:10.805Z,87.60
2024-01-31T02:13:38.234Z,87.90
2024-01-31T02:16:05.627Z,87.50
2024-01-31T02:18:33.201Z,87.30
2024-01-31T02:21:00.720Z,87.50
2024-01-31T02:23:28.066Z,86.70
2024-01-31T02:25:55.678Z,87.00
2024-01-31T02:28:23.063Z,86.70
2024-01-31T02:30:52.382Z,87.90
2024-01-31T02:33:19.677Z,87.30
2024-01-31T02:35:47.011Z,87.20
2024-01-31T02:38:14.253Z,87.00
2024-01-31T02:40:41.629Z,87.20
2024-01-31T02:43:08.987Z,86.80
2024-01-31T02:45:37.294Z,87.40
2024-01-31T02:48:05.442Z,87.70
2024-01-31T02:50:34.272Z,87.30
2024-01-31T02:53:02.222Z,86.80
2024-01-31T02:55:29.490Z,86.40
2024-01-31T02:57:57.019Z,86.80
2024-01-31T03:00:24.438Z,87.10
2024-01-31T03:02:51.793Z,86.90
2024-01-31T03:05:19.224Z,87.00
2024-01-31T03:07:46.719Z,88.20
2024-01-31T03:10:14.194Z,87.50
2024-01-31T03:12:41.624Z,87.70
2024-01-31T03:15:09.242Z,87.80
2024-01-31T03:17:37.794Z,87.30
2024-01-31T03:20:07.609Z,87.20
2024-01-31T03:22:36.315Z,86.70
2024-01-31T03:25:05.439Z,86.40
2024-01-31T03:27:32.870Z,86.70
2024-01-31T03:30:08.192Z,87.40
2024-01-31T03:32:37.020Z,87.50
2024-01-31T03:35:04.930Z,86.90
2024-01-31T03:37:32.448Z,87.30
2024-01-31T03:39:59.903Z,87.10
2024-01-31T03:42:27.344Z,87.50
2024-01-31T03:44:54.585Z,87.90
2024-01-31T03:47:21.889Z,88.20
2024-01-31T03:49:49.364Z,88.30
2024-01-31T03:52:16.920Z,88.20
2024-01-31T03:54:44.859Z,87.80
2024-01-31T03:57:12.093Z,87.60
2024-01-31T03:59:40.350Z,89.30
2024-01-31T04:02:08.339Z,89.20
2024-01-31T04:04:36.037Z,89.90
2024-01-31T04:07:03.972Z,89.30
2024-01-31T04:09:31.406Z,89.70
2024-01-31T04:12:00.261Z,89.40
2024-01-31T04:14:27.615Z,89.00
2024-01-31T04:16:54.896Z,89.20
2024-01-31T04:19:22.180Z,90.00
2024-01-31T04:21:49.645Z,90.10
2024-01-31T04:24:16.868Z,89.60
2024-01-31T04:26:47.403Z,89.20
2024-01-31T04:29:14.768Z,89.60
2024-01-31T04:31:42.246Z,89.40
2024-01-31T04:34:10.248Z,89.60
2024-01-31T04:36:37.778Z,90.10
2024-01-31T04:39:05.077Z,90.50
2024-01-31T04:41:32.362Z,90.40
2024-01-31T04:43:59.667Z,90.30
2024-01-31T04:46:26.924Z,90.20
2024-01-31T04:48:54.364Z,90.20
2024-01-31T04:51:21.766Z,90.20
2024-01-31T04:53:49.022Z,90.00
2024-01-31T04:56:17.821Z,89.40
2024-01-31T04:58:45.234Z,89.00
2024-01-31T05:01:12.506Z,90.30
2024-01-31T05:03:39.865Z,90.60
2024-01-31T05:06:07.466Z,90.90
2024-01-31T05:08:34.743Z,91.40
2024-01-31T05:11:02.034Z,91.30
2024-01-31T05:13:29.424Z,91.20
2024-01-31T05:15:56.619Z,91.40
2024-01-31T05:18:24.060Z,91.30
2024-01-31T05:20:51.357Z,90.90
2024-01-31T05:23:18.709Z,90.30
2024-01-31T05:25:47.428Z,90.20
2024-01-31T05:28:14.984Z,90.50
2024-01-31T05:30:42.329Z,90.80
2024-01-31T05:33:09.746Z,90.50
2024-01-31T05:35:37.583Z,91.00
2024-01-31T05:38:05.523Z,90.80
2024-01-31T05:40:33.323Z,90.50
2024-01-31T05:43:00.676Z,90.80
2024-01-31T05:45:28.554Z,90.90
2024-01-31T05:47:55.930Z,90.90
2024-01-31T05:50:23.343Z,90.80
2024-01-31T05:52:50.673Z,90.50
2024-01-31T05:55:18.005Z,90.40
2024-01-31T05:57:50.154Z,90.00
2024-01-31T06:00:18.354Z,88.90
2024-01-31T06:02:46.258Z,88.40
2024-01-31T06:05:14.399Z,87.80
2024-01-31T06:07:42.066Z,88.90
2024-01-31T06:10:10.975Z,88.10
2024-01-31T06:12:38.492Z,90.40
2024-01-31T06:15:06.375Z,89.30
2024-01-31T06:17:34.048Z,89.80
2024-01-31T06:20:01.659Z,90.00
2024-01-31T06:22:29.124Z,89.50
2024-01-31T06:24:56.577Z,88.30
2024-01-31T06:27:23.885Z,88.90
2024-01-31T06:29:51.146Z,88.50
2024-01-31T06:32:23.064Z,89.40
2024-01-31T06:34:50.700Z,89.00
2024-01-31T06:37:18.043Z,88.50
2024-01-31T06:39:45.401Z,88.30
2024-01-31T06:42:12.691Z,87.60
2024-01-31T06:44:39.996Z,87.50
2024-01-31T06:47:07.256Z,88.90
2024-01-31T06:49:34.648Z,89.90
2024-01-31T06:52:02.760Z,89.00
2024-01-31T06:54:30.233Z,88.30
2024-01-31T06:56:57.550Z,87.70
2024-01-31T06:59:25.089Z,87.90
2024-01-31T07:01:52.818Z,88.20
2024-01-31T07:04:20.992Z,88.30
2024-01-31T07:06:48.381Z,87.50
2024-01-31T07:09:15.874Z,86.70
2024-01-31T07:11:43.561Z,85.60
2024-01-31T07:14:10.824Z,86.40
2024-01-31T07:16:38.235Z,87.20
2024-01-31T07:19:05.643Z,86.40
2024-01-31T07:21:32.968Z,85.70
2024-01-31T07:24:06.853Z,84.70
2024-01-31T07:26:39.062Z,85.00
2024-01-31T07:29:09.567Z,84.00
2024-01-31T07:31:36.786Z,83.60
2024-01-31T07:34:04.213Z,82.70
2024-01-31T07:36:31.655Z,81.90
2024-01-31T07:38:58.962Z,81.10
2024-01-31T07:41:26.185Z,81.00
2024-01-31T07:43:53.756Z,80.70
2024-01-31T07:46:21.098Z,81.10
2024-01-31T07:48:48.453Z,81.70
2024-01-31T07:51:16.925Z,80.60
2024-01-31T07:53:44.613Z,81.60
2024-01-31T07:56:11.851Z,81.60
2024-01-31T07:58:40.228Z,82.70
2024-01-31T08:01:08.021Z,82.40
2024-01-31T08:03:40.489Z,82.00
2024-01-31T08:06:08.034Z,80.70
2024-01-31T08:08:37.531Z,82.30
2024-01-31T08:11:05.216Z,80.30
2024-01-31T08:13:33.773Z,80.40
2024-01-31T08:16:01.451Z,80.10
2024-01-31T08:18:28.797Z,79.30
2024-01-31T08:20:56.200Z,78.50
2024-01-31T08:23:23.582Z,77.90
2024-01-31T08:25:51.232Z,76.90
2024-01-31T08:28:18.732Z,76.80
2024-01-31T08:30:46.084Z,76.30
2024-01-31T08:33:13.582Z,75.30
2024-01-31T08:35:40.948Z,74.40
2024-01-31T08:38:08.208Z,73.40
2024-01-31T08:40:35.648Z,72.60
2024-01-31T08:43:03.311Z,72.30
2024-01-31T08:45:30.807Z,72.30
2024-01-31T08:47:58.953Z,72.00
2024-01-31T08:50:26.570Z,71.70
2024-01-31T08:52:55.296Z,71.40
2024-01-31T08:55:23.054Z,71.30
2024-01-31T08:57:50.329Z,70.30
2024-01-31T09:00:17.823Z,72.00
2024-01-31T09:02:45.098Z,71.50
2024-01-31T09:05:12.700Z,71.00
2024-01-31T09:07:40.145Z,70.50
2024-01-31T09:10:07.952Z,70.60
2024-01-31T09:12:35.289Z,70.00
2024-01-31T09:15:02.649Z,68.80
2024-01-31T09:17:30.296Z,68.80
2024-01-31T09:19:58.350Z,67.60
2024-01-31T09:22:26.073Z,67.30
2024-01-31T09:24:53.570Z,67.60
2024-01-31T09:27:20.927Z,65.80
2024-01-31T09:29:48.630Z,66.20
2024-01-31T09:32:16.568Z,66.60
2024-01-31T09:34:44.925Z,65.90
2024-01-31T09:37:12.356Z,63.70
2024-01-31T09:39:39.706Z,63.40
2024-01-31T09:42:07.671Z,63.30
2024-01-31T09:44:36.462Z,63.00
2024-01-31T09:47:05.230Z,62.70
2024-01-31T09:49:32.921Z,64.40
2024-01-31T09:52:01.407Z,63.50
2024-01-31T09:54:30.377Z,61.10
2024-01-31T09:56:58.828Z,62.30
2024-01-31T09:59:29.385Z,60.90
2024-01-31T10:01:57.560Z,59.70
2024-01-31T10:04:24.972Z,61.70
2024-01-31T10:06:53.409Z,61.10
2024-01-31T10:09:21.700Z,59.10
2024-01-31T10:11:49.202Z,58.30
2024-01-31T10:14:16.672Z,58.90
2024-01-31T10:16:44.037Z,58.80
2024-01-31T10:19:12.724Z,60.70
2024-01-31T10:21:40.075Z,61.70
2024-01-31T10:24:08.052Z,61.00
2024-01-31T10:26:36.114Z,58.80
2024-01-31T10:29:09.513Z,58.90
2024-01-31T10:31:40.683Z,58.50
2024-01-31T10:34:09.528Z,57.00
2024-01-31T10:39:13.377Z,56.30
2024-01-31T10:41:44.068Z,55.80
2024-01-31T10:44:12.206Z,54.90
2024-01-31T10:46:41.010Z,58.80
2024-01-31T10:49:09.078Z,59.20
2024-01-31T10:51:39.077Z,57.80
2024-01-31T10:54:08.456Z,56.80
2024-01-31T10:56:37.477Z,55.40
2024-01-31T10:59:10.084Z,53.10
2024-01-31T11:01:37.650Z,53.50
2024-01-31T11:04:08.694Z,51.70
2024-01-31T11:06:43.444Z,51.30
2024-01-31T11:09:24.337Z,50.60
2024-01-31T11:12:08.402Z,49.00
2024-01-31T11:14:36.138Z,51.30
2024-01-31T11:17:11.391Z,42.50
2024-01-31T11:19:59.896Z,37.60
2024-01-31T11:22:27.900Z,36.80
2024-01-31T11:24:56.652Z,35.00
2024-01-31T11:27:24.746Z,35.70
2024-01-31T11:29:53.680Z,34.10
2024-01-31T11:32:25.091Z,33.20
2024-01-31T11:35:06.087Z,33.70
2024-01-31T11:37:33.848Z,33.50
2024-01-31T11:40:01.922Z,33.00
2024-01-31T11:42:30.792Z,33.50
2024-01-31T11:44:58.373Z,37.50
2024-01-31T11:47:26.113Z,40.50
2024-01-31T11:49:53.743Z,41.90
2024-01-31T11:52:33.503Z,43.40
2024-01-31T11:55:01.161Z,44.30
2024-01-31T11:57:28.655Z,43.60
2024-01-31T11:59:56.107Z,43.70
2024-01-31T12:02:23.994Z,45.10
2024-01-31T12:04:58.655Z,43.10
2024-01-31T12:07:28.553Z,43.20
2024-01-31T12:09:56.169Z,44.60
2024-01-31T12:12:23.963Z,43.20
2024-01-31T12:14:51.509Z,41.60
2024-01-31T12:17:23.213Z,41.40
2024-01-31T12:19:52.114Z,41.40
2024-01-31T12:22:20.244Z,41.40
2024-01-31T12:24:47.668Z,42.70
2024-01-31T12:27:16.978Z,42.00
2024-01-31T12:29:47.924Z,40.90
2024-01-31T12:32:15.617Z,40.30
2024-01-31T12:34:43.126Z,40.60
2024-01-31T12:37:10.769Z,40.40
2024-01-31T12:39:38.426Z,39.20
2024-01-31T12:42:08.334Z,39.40
2024-01-31T12:44:36.336Z,39.20
2024-01-31T12:47:07.038Z,36.00
2024-01-31T12:49:35.167Z,32.10
2024-01-31T12:52:02.880Z,33.10
2024-01-31T12:54:30.344Z,31.50
2024-01-31T12:56:57.782Z,32.10
2024-01-31T12:59:26.380Z,32.90
2024-01-31T13:01:53.839Z,33.60
2024-01-31T13:04:25.678Z,32.60
2024-01-31T13:06:55.094Z,32.70
2024-01-31T13:09:23.383Z,32.60
2024-01-31T13:11:51.169Z,32.70
2024-01-31T13:14:18.615Z,32.20
2024-01-31T13:16:54.899Z,32.40
2024-01-31T13:19:28.983Z,32.60
2024-01-31T13:21:56.964Z,33.00
2024-01-31T13:24:24.724Z,33.30
2024-01-31T13:26:53.288Z,32.70
2024-01-31T13:29:23.106Z,32.50
2024-01-31T13:31:50.641Z,31.70
2024-01-31T13:34:18.392Z,32.70
2024-01-31T13:36:46.293Z,32.70
2024-01-31T13:39:16.501Z,32.70
2024-01-31T13:41:44.296Z,32.40
2024-01-31T13:44:12.146Z,32.30
2024-01-31T13:46:40.157Z,32.40
2024-01-31T13:49:08.169Z,32.20
2024-01-31T13:51:37.600Z,31.80
2024-01-31T13:54:05.303Z,32.50
2024-01-31T13:56:32.983Z,31.70
2024-01-31T13:59:00.645Z,31.50
2024-01-31T14:01:28.397Z,31.60
2024-01-31T14:03:56.124Z,32.30
2024-01-31T14:06:24.485Z,31.70
2024-01-31T14:08:52.155Z,31.20
2024-01-31T14:11:21.346Z,30.80
2024-01-31T14:13:49.031Z,31.50
2024-01-31T14:16:17.283Z,31.80
2024-01-31T14:18:44.999Z,31.80
2024-01-31T14:21:19.237Z,31.50
2024-01-31T14:23:54.938Z,30.40
2024-01-31T14:26:29.224Z,30.90
2024-01-31T14:28:58.424Z,30.60
2024-01-31T14:31:26.500Z,30.40
2024-01-31T14:33:54.377Z,30.00
2024-01-31T14:36:22.556Z,30.20
2024-01-31T14:38:50.491Z,30.60
2024-01-31T14:41:18.277Z,31.10
2024-01-31T14:43:46.072Z,31.20
2024-01-31T14:46:13.918Z,31.40
2024-01-31T14:48:41.665Z,31.50
2024-01-31T14:51:09.841Z,31.70
2024-01-31T14:53:37.576Z,31.80
2024-01-31T14:56:05.633Z,32.20
2024-01-31T14:58:33.537Z,32.70
2024-01-31T15:01:03.330Z,32.30
2024-01-31T15:03:31.917Z,32.30
2024-01-31T15:06:02.074Z,33.90
2024-01-31T15:08:30.257Z,36.70
2024-01-31T15:10:58.014Z,38.80
2024-01-31T15:13:25.450Z,39.90
2024-01-31T15:15:52.809Z,40.70
2024-01-31T15:18:20.269Z,42.00
2024-01-31T15:20:47.868Z,42.30
2024-01-31T15:23:15.221Z,42.80
2024-01-31T15:25:42.740Z,43.00
2024-01-31T15:28:10.436Z,43.40
2024-01-31T15:30:38.371Z,44.10
2024-01-31T15:33:05.984Z,44.60
2024-01-31T15:35:33.506Z,44.70
2024-01-31T15:38:01.378Z,44.90
2024-01-31T15:40:30.099Z,45.50
2024-01-31T15:42:57.582Z,46.30
2024-01-31T15:45:25.177Z,47.70
2024-01-31T15:47:53.181Z,48.80
2024-01-31T15:50:23.319Z,48.50
2024-01-31T15:52:53.546Z,49.20
2024-01-31T15:55:20.949Z,50.20
2024-01-31T15:57:48.224Z,50.40
2024-01-31T16:00:16.555Z,50.70
2024-01-31T16:02:46.478Z,51.30
2024-01-31T16:05:13.839Z,50.60
2024-01-31T16:07:41.292Z,50.20
2024-01-31T16:10:09.057Z,49.50
2024-01-31T16:12:37.789Z,50.00
2024-01-31T16:15:05.508Z,51.00
2024-01-31T16:17:32.853Z,51.20
2024-01-31T16:20:02.970Z,50.90
2024-01-31T16:22:30.389Z,51.30
2024-01-31T16:24:57.829Z,52.20
2024-01-31T16:27:25.391Z,53.30
2024-01-31T16:29:55.311Z,53.20
2024-01-31T16:32:22.772Z,52.80
2024-01-31T16:34:50.118Z,53.10
2024-01-31T16:37:17.540Z,53.60
2024-01-31T16:39:46.298Z,54.20
2024-01-31T16:42:14.004Z,54.60
2024-01-31T16:44:44.864Z,54.40
2024-01-31T16:47:12.197Z,55.10
2024-01-31T16:49:39.739Z,55.30
2024-01-31T16:52:07.541Z,55.00
2024-01-31T16:54:34.815Z,55.30
2024-01-31T16:57:05.329Z,54.80
2024-01-31T16:59:32.964Z,54.50
2024-01-31T17:02:00.433Z,56.20
2024-01-31T17:04:28.213Z,55.00
2024-01-31T17:06:55.770Z,55.40
2024-01-31T17:09:23.582Z,55.50
2024-01-31T17:11:51.250Z,55.40
2024-01-31T17:14:18.898Z,56.10
2024-01-31T17:16:47.574Z,56.90
2024-01-31T17:19:15.277Z,57.30
2024-01-31T17:21:42.957Z,56.50
2024-01-31T17:24:10.447Z,56.80
2024-01-31T17:26:38.175Z,56.90
2024-01-31T17:29:05.747Z,57.90
2024-01-31T17:31:35.159Z,58.00
2024-01-31T17:34:02.947Z,58.60
2024-01-31T17:36:31.132Z,58.80
2024-01-31T17:38:59.947Z,59.00
2024-01-31T17:41:27.618Z,58.70
2024-01-31T17:43:55.174Z,60.00
2024-01-31T17:46:24.167Z,60.90
2024-01-31T17:48:51.894Z,61.70
2024-01-31T17:51:19.865Z,62.80
2024-01-31T17:53:47.547Z,63.40
2024-01-31T17:56:17.689Z,63.40
2024-01-31T17:58:45.179Z,63.60
2024-01-31T18:01:12.955Z,63.30
2024-01-31T18:03:40.499Z,63.00
2024-01-31T18:06:08.285Z,62.80
2024-01-31T18:08:36.236Z,62.70
2024-01-31T18:11:04.315Z,61.40
2024-01-31T18:13:31.814Z,61.70
2024-01-31T18:15:59.371Z,62.60
2024-01-31T18:18:27.049Z,62.80
2024-01-31T18:20:55.038Z,63.30
2024-01-31T18:23:22.699Z,64.50
2024-01-31T18:25:50.006Z,65.80
2024-01-31T18:28:17.509Z,64.70
2024-01-31T18:30:45.169Z,63.30
2024-01-31T18:33:12.797Z,62.50
2024-01-31T18:35:43.705Z,62.20
2024-01-31T18:38:12.167Z,61.10
2024-01-31T18:40:39.868Z,62.20
2024-01-31T18:43:07.544Z,63.50
2024-01-31T18:45:35.321Z,63.70
2024-01-31T18:48:02.831Z,63.30
2024-01-31T18:50:30.577Z,63.50
2024-01-31T18:52:58.051Z,63.30
2024-01-31T18:55:25.573Z,63.10
2024-01-31T18:57:53.152Z,63.20
2024-01-31T19:00:21.033Z,63.40
2024-01-31T19:02:48.534Z,62.30
2024-01-31T19:05:17.106Z,62.50
2024-01-31T19:07:44.409Z,62.70
2024-01-31T19:10:11.836Z,62.60
2024-01-31T19:12:39.210Z,62.80
2024-01-31T19:15:07.168Z,62.90
2024-01-31T19:17:43.070Z,62.40
2024-01-31T19:20:15.946Z,62.40
2024-01-31T19:22:48.543Z,62.20
2024-01-31T19:25:16.209Z,62.30
2024-01-31T19:27:43.667Z,62.30
2024-01-31T19:30:16.112Z,62.20
2024-01-31T19:32:44.954Z,62.30
2024-01-31T19:35:12.490Z,62.90
2024-01-31T19:37:39.885Z,63.80
2024-01-31T19:40:08.106Z,63.90
2024-01-31T19:42:35.487Z,64.40
2024-01-31T19:45:04.033Z,65.10
2024-01-31T19:47:32.648Z,65.10
2024-01-31T19:50:00.063Z,65.80
2024-01-31T19:52:31.231Z,64.80
2024-01-31T19:54:58.958Z,65.10
2024-01-31T19:57:27.443Z,65.90
2024-01-31T19:59:54.786Z,66.30
2024-01-31T20:02:22.976Z,64.70
2024-01-31T20:04:50.548Z,62.90
2024-01-31T20:07:21.017Z,63.70
2024-01-31T20:09:50.276Z,61.50
2024-01-31T20:12:17.639Z,59.30
2024-01-31T20:14:45.294Z,56.60
2024-01-31T20:17:14.847Z,56.50
2024-01-31T20:19:42.582Z,58.20
2024-01-31T20:22:10.139Z,57.70
2024-01-31T20:24:37.779Z,57.80
2024-01-31T20:27:07.779Z,58.10
2024-01-31T20:29:35.286Z,58.70
2024-01-31T20:32:03.716Z,58.60
2024-01-31T20:34:31.047Z,58.30
2024-01-31T20:36:58.397Z,57.20
2024-01-31T20:39:26.876Z,57.90
2024-01-31T20:41:54.421Z,59.30
2024-01-31T20:44:21.758Z,60.70
2024-01-31T20:46:49.220Z,61.10
2024-01-31T20:49:16.681Z,62.10
2024-01-31T20:51:44.135Z,62.80
2024-01-31T20:54:11.903Z,63.20
2024-01-31T20:56:39.466Z,62.90
2024-01-31T20:59:06.854Z,62.10
2024-01-31T21:01:34.327Z,62.00
2024-01-31T21:04:02.670Z,62.60
2024-01-31T21:06:30.105Z,62.40
2024-01-31T21:08:57.572Z,63.00
2024-01-31T21:11:25.021Z,63.40
2024-01-31T21:13:52.546Z,62.10
2024-01-31T21:16:19.833Z,59.70
2024-01-31T21:18:47.440Z,58.90
2024-01-31T21:21:14.981Z,59.10
2024-01-31T21:23:42.540Z,60.00
2024-01-31T21:26:09.896Z,60.30
2024-01-31T21:28:37.361Z,60.20
2024-01-31T21:31:04.837Z,60.20
2024-01-31T21:33:32.356Z,59.00
2024-01-31T21:36:00.361Z,60.10
2024-01-31T21:38:28.319Z,60.40
2024-01-31T21:40:58.854Z,61.10
2024-01-31T21:43:26.794Z,60.30
2024-01-31T21:45:54.541Z,60.10
2024-01-31T21:48:24.869Z,60.30
2024-01-31T21:50:52.326Z,59.60
2024-01-31T21:53:19.716Z,60.20
2024-01-31T21:55:48.654Z,61.00
2024-01-31T21:58:16.027Z,61.30
2024-01-31T22:00:43.475Z,60.90
2024-01-31T22:03:11.138Z,60.80
2024-01-31T22:05:39.012Z,60.70
2024-01-31T22:08:06.928Z,60.80
2024-01-31T22:10:34.469Z,60.60
2024-01-31T22:13:02.011Z,61.00
2024-01-31T22:15:29.556Z,60.80
2024-01-31T22:17:57.134Z,61.60
2024-01-31T22:20:24.904Z,61.50
2024-01-31T22:22:52.382Z,61.10
2024-01-31T22:25:19.980Z,61.00
2024-01-31T22:27:47.407Z,61.10
2024-01-31T22:30:17.311Z,59.80
2024-01-31T22:32:44.997Z,60.00
2024-01-31T22:35:12.589Z,60.50
2024-01-31T22:37:39.969Z,63.60
2024-01-31T22:40:08.091Z,61.80
2024-01-31T22:42:35.519Z,60.70
2024-01-31T22:45:03.233Z,61.00
2024-01-31T22:47:33.743Z,62.30
2024-01-31T22:50:01.238Z,61.50
2024-01-31T22:52:28.643Z,61.50
2024-01-31T22:55:00.667Z,62.00
2024-01-31T22:57:30.243Z,62.50
2024-01-31T22:59:57.856Z,63.00
2024-01-31T23:02:25.459Z,63.20
2024-01-31T23:04:52.928Z,63.50
2024-01-31T23:07:21.174Z,63.80
2024-01-31T23:09:48.548Z,63.40
2024-01-31T23:12:18.578Z,63.00
2024-01-31T23:14:47.838Z,62.90
2024-01-31T23:17:17.619Z,63.10
2024-01-31T23:19:45.438Z,63.80
2024-01-31T23:22:12.962Z,64.80
2024-01-31T23:24:41.090Z,66.30
2024-01-31T23:27:08.469Z,68.60
2024-01-31T23:29:35.979Z,73.90
2024-01-31T23:32:06.049Z,74.60
2024-01-31T23:34:33.608Z,74.90
2024-01-31T23:37:02.247Z,75.00
2024-01-31T23:39:29.557Z,74.30
2024-01-31T23:41:56.865Z,74.60
2024-01-31T23:44:24.319Z,75.20
2024-01-31T23:46:51.721Z,74.10
2024-01-31T23:49:19.166Z,72.10
2024-01-31T23:51:46.605Z,73.30
2024-01-31T23:54:14.165Z,73.80
2024-01-31T23:56:41.827Z,73.80
2024-01-31T23:59:09.275Z,73.90
